CheckWX is a tool to help pilots better visualize weather data.  It is not intended as a substitute for an official pre-flight weather briefing.

18:59:31 UTC

KBIF METAR
Biggs AAF (Fort Bliss) Airport
Fort Bliss/El Paso/, Texas, USA
Current

1 hour ago

KBIF 191758Z AUTO 21005KT 9SM SCT046 BKN055 OVC080 04/M07 A2989 RMK AO2 SLP112 T00381074 10044 21026 58001 $
Observed
Feb-19 @ 17:58 UTC
Wind
  • 210° at 5 KTS
Visibility
9 SM
Flight Rules
VFR
Cloud Levels
  • Scattered at 4,600' AGL
  • Broken at 5,500' AGL
  • Overcast at 8,000' AGL
Temperature
C / 39°F
Dewpoint
-7°C / 19°F
Humidity
45%
Altimeter
29.89" Hg
Pressure
1011.2 hPa
Previous

2 hours ago

KBIF 191658Z AUTO 22005KT 9SM FEW070 03/M07 A2989 RMK AO2 SLP109 T00291071 $
Observed
Feb-19 @ 16:58 UTC
Wind
  • 220° at 5 KTS
Visibility
9 SM
Flight Rules
VFR
Cloud Levels
  • Few at 7,000' AGL
Temperature
C / 37°F
Dewpoint
-7°C / 19°F
Humidity
48%
Altimeter
29.89" Hg
Pressure
1010.9 hPa
Previous

3 hours ago

KBIF 191558Z AUTO 09004KT 10SM CLR 01/M08 A2989 RMK AO2 SLP109 T00101078 $
Observed
Feb-19 @ 15:58 UTC
Wind
  • 090° at 4 KTS
Visibility
10 SM
Flight Rules
VFR
Cloud Levels
  • Clear skies
Temperature
C / 34°F
Dewpoint
-8°C / 18°F
Humidity
51%
Altimeter
29.89" Hg
Pressure
1010.9 hPa